createdAt,value
2018-04-29T00:00:43.852Z,57.88
2018-04-29T00:03:12.359Z,57.63
2018-04-29T00:05:40.849Z,57.46
2018-04-29T00:08:09.336Z,57.29
2018-04-29T00:10:37.845Z,56.92
2018-04-29T00:13:06.396Z,57.17
2018-04-29T00:15:34.925Z,57.07
2018-04-29T00:18:03.413Z,57.10
2018-04-29T00:20:31.959Z,56.79
2018-04-29T00:23:00.459Z,56.46
2018-04-29T00:25:28.934Z,56.22
2018-04-29T00:27:57.436Z,56.18
2018-04-29T00:30:25.932Z,55.95
2018-04-29T00:32:54.456Z,55.34
2018-04-29T00:35:22.925Z,55.47
2018-04-29T00:37:51.428Z,55.30
2018-04-29T00:40:19.936Z,55.33
2018-04-29T00:42:48.424Z,55.14
2018-04-29T00:45:16.892Z,55.19
2018-04-29T00:47:45.380Z,55.16
2018-04-29T00:50:13.840Z,55.33
2018-04-29T00:52:42.332Z,54.96
2018-04-29T00:55:10.812Z,54.90
2018-04-29T00:57:39.340Z,54.52
2018-04-29T01:00:07.788Z,54.60
2018-04-29T01:02:36.261Z,55.02
2018-04-29T01:05:04.753Z,54.66
2018-04-29T01:07:33.262Z,54.74
2018-04-29T01:10:01.757Z,54.54
2018-04-29T01:12:30.221Z,54.02
2018-04-29T01:14:58.681Z,53.71
2018-04-29T01:17:27.184Z,53.97
2018-04-29T01:19:55.660Z,53.50
2018-04-29T01:22:24.163Z,53.36
2018-04-29T01:24:52.609Z,52.95
2018-04-29T01:27:21.096Z,52.14
2018-04-29T01:29:49.598Z,51.81
2018-04-29T01:32:18.074Z,51.74
2018-04-29T01:34:46.542Z,51.11
2018-04-29T01:37:15.020Z,51.64
2018-04-29T01:39:43.524Z,51.01
2018-04-29T01:42:11.988Z,50.79
2018-04-29T01:44:40.481Z,50.57
2018-04-29T01:47:08.944Z,50.43
2018-04-29T01:49:37.490Z,50.44
2018-04-29T01:52:05.967Z,50.05
2018-04-29T01:54:34.458Z,50.03
2018-04-29T01:57:02.975Z,49.84
2018-04-29T01:59:31.509Z,49.88
2018-04-29T02:01:59.973Z,50.90
2018-04-29T02:04:28.484Z,50.47
2018-04-29T02:06:56.983Z,50.97
2018-04-29T02:09:25.481Z,50.93
2018-04-29T02:11:53.961Z,50.56
2018-04-29T02:14:22.408Z,50.55
2018-04-29T02:16:50.894Z,50.63
2018-04-29T02:19:19.408Z,50.68
2018-04-29T02:21:47.868Z,50.70
2018-04-29T02:24:16.345Z,50.65
2018-04-29T02:26:44.863Z,50.59
2018-04-29T02:29:13.375Z,51.14
2018-04-29T02:31:41.836Z,50.56
2018-04-29T02:34:10.350Z,50.48
2018-04-29T02:36:38.845Z,50.47
2018-04-29T02:39:07.460Z,50.59
2018-04-29T02:41:35.920Z,49.93
2018-04-29T02:44:04.387Z,49.64
2018-04-29T02:46:32.888Z,49.56
2018-04-29T02:49:01.349Z,49.56
2018-04-29T02:51:29.826Z,49.72
2018-04-29T02:53:58.330Z,49.92
2018-04-29T02:56:26.824Z,49.73
2018-04-29T02:58:55.262Z,49.76
2018-04-29T03:01:23.757Z,50.15
2018-04-29T03:03:52.300Z,50.07
2018-04-29T03:06:20.797Z,50.25
2018-04-29T03:08:49.261Z,50.24
2018-04-29T03:11:17.744Z,50.17
2018-04-29T03:13:46.301Z,50.60
2018-04-29T03:16:14.801Z,50.49
2018-04-29T03:18:43.292Z,50.68
2018-04-29T03:21:11.753Z,50.85
2018-04-29T03:23:40.248Z,51.20
2018-04-29T03:26:08.756Z,50.96
2018-04-29T03:28:37.569Z,51.34
2018-04-29T03:31:06.045Z,51.92
2018-04-29T03:33:34.548Z,51.40
2018-04-29T03:36:03.100Z,51.50
2018-04-29T03:38:31.556Z,51.53
2018-04-29T03:41:00.028Z,51.72
2018-04-29T03:43:28.524Z,51.95
2018-04-29T03:45:57.015Z,51.91
2018-04-29T03:48:25.501Z,52.23
2018-04-29T03:50:53.971Z,52.19
2018-04-29T03:53:22.454Z,52.54
2018-04-29T03:55:50.905Z,52.48
2018-04-29T03:58:31.016Z,52.70
2018-04-29T04:01:11.020Z,52.51
2018-04-29T04:04:05.090Z,52.36
2018-04-29T04:06:33.585Z,52.20
2018-04-29T04:09:02.101Z,51.87
2018-04-29T04:11:30.640Z,51.49
2018-04-29T04:13:59.153Z,51.94
2018-04-29T04:16:27.636Z,51.36
2018-04-29T04:18:56.202Z,51.26
2018-04-29T04:21:24.700Z,51.67
2018-04-29T04:23:53.188Z,51.35
2018-04-29T04:26:21.680Z,51.57
2018-04-29T04:28:50.188Z,50.99
2018-04-29T04:31:18.712Z,50.64
2018-04-29T04:33:47.173Z,50.73
2018-04-29T04:36:15.670Z,50.84
2018-04-29T04:38:44.127Z,50.78
2018-04-29T04:41:12.620Z,50.50
2018-04-29T04:43:41.085Z,49.97
2018-04-29T04:46:09.604Z,49.43
2018-04-29T04:48:38.132Z,48.60
2018-04-29T04:51:06.579Z,48.05
2018-04-29T04:53:35.077Z,47.98
2018-04-29T04:56:03.589Z,47.88
2018-04-29T04:58:32.063Z,47.34
2018-04-29T05:01:00.557Z,48.80
2018-04-29T05:03:29.038Z,50.15
2018-04-29T05:05:57.533Z,50.33
2018-04-29T05:08:26.015Z,51.54
2018-04-29T05:10:54.529Z,51.60
2018-04-29T05:13:23.000Z,52.11
2018-04-29T05:15:51.460Z,51.90
2018-04-29T05:18:19.972Z,51.56
2018-04-29T05:20:48.468Z,51.26
2018-04-29T05:23:16.985Z,51.06
2018-04-29T05:25:45.476Z,51.32
2018-04-29T05:28:13.956Z,51.89
2018-04-29T05:30:42.445Z,52.03
2018-04-29T05:33:10.907Z,52.36
2018-04-29T05:35:39.416Z,52.15
2018-04-29T05:38:07.912Z,50.93
2018-04-29T05:40:36.423Z,49.59
2018-04-29T05:43:04.889Z,48.93
2018-04-29T05:45:33.408Z,49.06
2018-04-29T05:48:01.894Z,49.33
2018-04-29T05:50:30.386Z,49.17
2018-04-29T05:52:58.902Z,48.93
2018-04-29T05:55:27.390Z,48.71
2018-04-29T05:57:55.850Z,48.04
2018-04-29T06:00:24.354Z,47.55
2018-04-29T06:02:52.894Z,46.78
2018-04-29T06:05:21.378Z,46.57
2018-04-29T06:07:49.884Z,45.92
2018-04-29T06:10:18.397Z,46.06
2018-04-29T06:12:46.908Z,45.79
2018-04-29T06:15:15.409Z,45.39
2018-04-29T06:17:43.911Z,45.92
2018-04-29T06:20:12.380Z,46.15
2018-04-29T06:22:41.780Z,45.19
2018-04-29T06:25:10.245Z,45.40
2018-04-29T06:27:38.699Z,45.16
2018-04-29T06:30:07.208Z,45.94
2018-04-29T06:32:35.700Z,46.01
2018-04-29T06:35:04.212Z,45.06
2018-04-29T06:37:32.719Z,44.30
2018-04-29T06:40:01.222Z,44.40
2018-04-29T06:42:29.775Z,44.53
2018-04-29T06:44:58.220Z,44.52
2018-04-29T06:47:26.704Z,43.53
2018-04-29T06:49:55.172Z,43.23
2018-04-29T06:52:23.737Z,42.54
2018-04-29T06:54:52.213Z,41.35
2018-04-29T06:57:20.687Z,41.19
2018-04-29T06:59:49.304Z,42.67
2018-04-29T07:02:17.737Z,41.59
2018-04-29T07:04:46.221Z,40.59
2018-04-29T07:07:14.720Z,40.65
2018-04-29T07:09:43.238Z,41.05
2018-04-29T07:12:11.700Z,39.72
2018-04-29T07:14:40.164Z,39.73
2018-04-29T07:17:08.674Z,39.58
2018-04-29T07:19:37.218Z,40.18
2018-04-29T07:22:05.645Z,39.38
2018-04-29T07:24:34.114Z,39.01
2018-04-29T07:27:02.648Z,38.50
2018-04-29T07:29:31.102Z,37.74
2018-04-29T07:31:59.626Z,37.97
2018-04-29T07:34:28.136Z,36.84
2018-04-29T07:36:56.672Z,37.18
2018-04-29T07:39:25.169Z,36.73
2018-04-29T07:41:53.633Z,36.47
2018-04-29T07:44:22.158Z,35.64
2018-04-29T07:46:50.679Z,35.62
2018-04-29T07:49:19.141Z,35.54
2018-04-29T07:51:47.643Z,34.76
2018-04-29T07:54:16.117Z,35.12
2018-04-29T07:56:44.581Z,36.09
2018-04-29T07:59:13.077Z,35.14
2018-04-29T08:01:41.551Z,35.44
2018-04-29T08:04:10.057Z,36.39
2018-04-29T08:06:38.615Z,35.37
2018-04-29T08:09:07.108Z,33.43
2018-04-29T08:11:35.601Z,34.17
2018-04-29T08:14:04.067Z,32.13
2018-04-29T08:16:32.572Z,30.63
2018-04-29T08:19:01.033Z,30.91
2018-04-29T08:21:29.483Z,31.81
2018-04-29T08:23:58.091Z,28.39
2018-04-29T08:26:26.576Z,30.17
2018-04-29T08:28:55.064Z,29.49
2018-04-29T08:31:23.537Z,30.37
2018-04-29T08:33:51.989Z,31.80
2018-04-29T08:36:20.562Z,31.63
2018-04-29T08:38:48.992Z,30.28
2018-04-29T08:41:17.509Z,33.03
2018-04-29T08:43:46.009Z,31.94
2018-04-29T08:46:14.474Z,29.98
2018-04-29T08:48:42.934Z,32.98
2018-04-29T08:51:11.441Z,32.83
2018-04-29T08:53:39.889Z,32.47
2018-04-29T08:56:08.404Z,32.27
2018-04-29T08:58:36.914Z,32.57
2018-04-29T09:01:05.412Z,32.51
2018-04-29T09:03:34.002Z,31.26
2018-04-29T09:06:02.406Z,31.50
2018-04-29T09:08:30.896Z,31.39
2018-04-29T09:10:59.364Z,31.15
2018-04-29T09:13:27.926Z,31.35
2018-04-29T09:15:56.398Z,30.45
2018-04-29T09:18:24.870Z,30.84
2018-04-29T09:20:53.364Z,30.24
2018-04-29T09:23:21.839Z,30.03
2018-04-29T09:25:50.328Z,30.35
2018-04-29T09:28:18.796Z,30.73
2018-04-29T09:30:47.301Z,30.42
2018-04-29T09:33:15.750Z,30.95
2018-04-29T09:35:44.196Z,30.76
2018-04-29T09:38:12.689Z,30.93
2018-04-29T09:40:41.165Z,30.93
2018-04-29T09:43:09.620Z,30.66
2018-04-29T09:45:38.120Z,30.44
2018-04-29T09:48:06.582Z,30.43
2018-04-29T09:50:35.081Z,30.47
2018-04-29T09:53:03.540Z,30.74
2018-04-29T09:55:32.037Z,31.60
2018-04-29T09:58:00.498Z,31.83
2018-04-29T10:00:29.016Z,32.12
2018-04-29T10:03:03.096Z,31.85
2018-04-29T10:05:31.656Z,31.18
2018-04-29T10:08:00.106Z,31.73
2018-04-29T10:10:28.592Z,31.89
2018-04-29T10:12:57.085Z,32.42
2018-04-29T10:15:25.576Z,32.00
2018-04-29T10:17:54.032Z,32.40
2018-04-29T10:20:22.536Z,31.82
2018-04-29T10:22:51.001Z,31.80
2018-04-29T10:25:19.458Z,32.26
2018-04-29T10:27:47.963Z,32.12
2018-04-29T10:30:16.424Z,30.95
2018-04-29T10:32:44.970Z,31.33
2018-04-29T10:35:13.437Z,31.81
2018-04-29T10:37:41.893Z,32.04
2018-04-29T10:40:10.374Z,31.82
2018-04-29T10:42:38.844Z,32.59
2018-04-29T10:45:07.347Z,33.04
2018-04-29T10:47:35.840Z,33.47
2018-04-29T10:50:04.323Z,33.09
2018-04-29T10:52:32.955Z,32.22
2018-04-29T10:55:01.412Z,32.36
2018-04-29T10:57:29.919Z,32.14
2018-04-29T10:59:58.440Z,32.56
2018-04-29T11:02:26.925Z,33.10
2018-04-29T11:04:55.440Z,33.24
2018-04-29T11:07:23.893Z,33.75
2018-04-29T11:09:52.417Z,32.23
2018-04-29T11:12:20.900Z,32.61
2018-04-29T11:14:49.432Z,32.96
2018-04-29T11:17:17.927Z,32.92
2018-04-29T11:19:46.424Z,31.99
2018-04-29T11:22:14.995Z,31.97
2018-04-29T11:24:43.417Z,31.76
2018-04-29T11:27:11.900Z,31.10
2018-04-29T11:29:40.369Z,31.84
2018-04-29T11:32:08.834Z,30.74
2018-04-29T11:34:37.329Z,32.12
2018-04-29T11:37:05.795Z,32.37
2018-04-29T11:39:34.300Z,31.84
2018-04-29T11:42:02.796Z,31.53
2018-04-29T11:44:31.260Z,31.52
2018-04-29T11:46:59.744Z,32.15
2018-04-29T11:49:28.248Z,32.30
2018-04-29T11:51:56.723Z,31.77
2018-04-29T11:54:25.172Z,32.13
2018-04-29T11:56:53.670Z,32.25
2018-04-29T11:59:22.117Z,32.03
2018-04-29T12:01:50.689Z,31.74
2018-04-29T12:04:19.133Z,31.26
2018-04-29T12:06:47.624Z,31.33
2018-04-29T12:09:16.114Z,31.53
2018-04-29T12:11:44.621Z,31.69
2018-04-29T12:14:13.119Z,31.95
2018-04-29T12:16:41.569Z,32.82
2018-04-29T12:19:10.105Z,33.60
2018-04-29T12:21:38.578Z,31.79
2018-04-29T12:24:07.087Z,32.56
2018-04-29T12:26:35.589Z,32.94
2018-04-29T12:29:04.093Z,32.40
2018-04-29T12:31:32.547Z,32.22
2018-04-29T12:34:01.018Z,31.37
2018-04-29T12:36:29.504Z,31.91
2018-04-29T12:38:57.944Z,31.78
2018-04-29T12:41:26.437Z,31.97
2018-04-29T12:43:54.914Z,32.09
2018-04-29T12:46:23.402Z,31.91
2018-04-29T12:48:51.913Z,31.48
2018-04-29T12:51:20.401Z,31.22
2018-04-29T12:53:48.897Z,31.84
2018-04-29T12:56:17.358Z,32.36
2018-04-29T12:58:45.851Z,32.78
2018-04-29T13:01:14.296Z,32.52
2018-04-29T13:03:42.780Z,32.50
2018-04-29T13:06:11.273Z,32.67
2018-04-29T13:08:39.736Z,32.41
2018-04-29T13:11:08.191Z,32.47
2018-04-29T13:13:36.681Z,32.12
2018-04-29T13:16:05.156Z,31.82
2018-04-29T13:18:33.659Z,31.63
2018-04-29T13:21:02.108Z,31.44
2018-04-29T13:23:30.568Z,31.03
2018-04-29T13:25:59.048Z,29.97
2018-04-29T13:28:27.550Z,30.92
2018-04-29T13:30:56.031Z,30.84
2018-04-29T13:33:24.484Z,29.79
2018-04-29T13:35:52.964Z,30.22
2018-04-29T13:38:21.449Z,30.31
2018-04-29T13:40:49.989Z,30.08
2018-04-29T13:43:18.472Z,30.58
2018-04-29T13:45:46.923Z,30.25
2018-04-29T13:48:15.418Z,28.61
2018-04-29T13:50:43.870Z,28.24
2018-04-29T13:53:12.375Z,28.89
2018-04-29T13:55:40.835Z,28.34
2018-04-29T13:58:09.325Z,29.39
2018-04-29T14:00:37.773Z,29.68
2018-04-29T14:03:06.231Z,29.78
2018-04-29T14:05:34.712Z,30.17
2018-04-29T14:08:03.197Z,29.40
2018-04-29T14:10:31.725Z,28.68
2018-04-29T14:13:00.266Z,28.59
2018-04-29T14:15:28.732Z,29.85
2018-04-29T14:17:57.192Z,29.18
2018-04-29T14:20:25.642Z,28.40
2018-04-29T14:22:54.137Z,28.21
2018-04-29T14:25:22.636Z,28.24
2018-04-29T14:27:51.084Z,28.63
2018-04-29T14:30:19.545Z,29.90
2018-04-29T14:32:48.033Z,29.77
2018-04-29T14:35:16.487Z,29.94
2018-04-29T14:37:45.032Z,29.35
2018-04-29T14:40:13.539Z,29.17
2018-04-29T14:42:42.078Z,29.04
2018-04-29T14:45:10.553Z,29.74
2018-04-29T14:47:39.059Z,29.64
2018-04-29T14:50:07.519Z,30.04
2018-04-29T14:52:36.000Z,30.60
2018-04-29T14:55:04.513Z,31.13
2018-04-29T14:57:32.956Z,30.90
2018-04-29T15:00:01.445Z,30.82
2018-04-29T15:02:29.928Z,30.66
2018-04-29T15:04:58.414Z,30.79
2018-04-29T15:07:26.905Z,31.13
2018-04-29T15:09:55.348Z,31.61
2018-04-29T15:12:23.824Z,31.46
2018-04-29T15:14:52.276Z,32.13
2018-04-29T15:17:20.764Z,31.83
2018-04-29T15:19:49.261Z,31.32
2018-04-29T15:22:17.759Z,31.52
2018-04-29T15:24:46.254Z,31.61
2018-04-29T15:27:14.704Z,32.04
2018-04-29T15:29:43.192Z,31.26
2018-04-29T15:32:11.644Z,31.49
2018-04-29T15:34:40.144Z,31.93
2018-04-29T15:37:08.601Z,31.95
2018-04-29T15:39:37.058Z,32.11
2018-04-29T15:42:05.552Z,31.98
2018-04-29T15:44:34.073Z,32.18
2018-04-29T15:47:02.533Z,32.71
2018-04-29T15:49:31.046Z,32.71
2018-04-29T15:51:59.528Z,32.54
2018-04-29T15:54:27.986Z,32.50
2018-04-29T15:56:56.431Z,32.79
2018-04-29T15:59:24.928Z,33.08
2018-04-29T16:01:53.419Z,33.21
2018-04-29T16:04:21.853Z,33.20
2018-04-29T16:06:50.342Z,33.48
2018-04-29T16:09:18.839Z,33.69
2018-04-29T16:11:47.362Z,33.84
2018-04-29T16:14:15.776Z,34.60
2018-04-29T16:16:44.278Z,34.62
2018-04-29T16:19:12.728Z,34.80
2018-04-29T16:21:41.200Z,34.66
2018-04-29T16:24:09.685Z,35.27
2018-04-29T16:26:38.164Z,35.23
2018-04-29T16:29:06.674Z,35.19
2018-04-29T16:31:35.105Z,35.72
2018-04-29T16:34:03.569Z,35.68
2018-04-29T16:36:32.092Z,35.67
2018-04-29T16:39:00.560Z,35.83
2018-04-29T16:41:29.129Z,36.04
2018-04-29T16:43:57.597Z,36.28
2018-04-29T16:46:26.100Z,36.52
2018-04-29T16:48:54.578Z,36.59
2018-04-29T16:51:23.050Z,36.73
2018-04-29T16:53:51.536Z,36.85
2018-04-29T16:56:19.998Z,36.95
2018-04-29T16:58:48.508Z,37.25
2018-04-29T17:01:16.978Z,37.69
2018-04-29T17:03:45.476Z,37.87
2018-04-29T17:06:13.944Z,37.44
2018-04-29T17:08:42.441Z,38.00
2018-04-29T17:11:10.912Z,37.90
2018-04-29T17:13:40.168Z,37.75
2018-04-29T17:16:08.668Z,38.17
2018-04-29T17:18:37.116Z,38.18
2018-04-29T17:21:05.611Z,38.16
2018-04-29T17:23:34.112Z,38.03
2018-04-29T17:26:02.573Z,38.49
2018-04-29T17:28:31.035Z,38.59
2018-04-29T17:30:59.537Z,38.63
2018-04-29T17:33:28.027Z,38.80
2018-04-29T17:35:56.526Z,38.81
2018-04-29T17:38:25.072Z,38.94
2018-04-29T17:40:53.572Z,39.18
2018-04-29T17:43:22.034Z,39.33
2018-04-29T17:45:50.471Z,39.66
2018-04-29T17:48:18.976Z,39.80
2018-04-29T17:50:47.464Z,39.73
2018-04-29T17:53:15.962Z,39.79
2018-04-29T17:55:44.401Z,39.87
2018-04-29T17:58:12.899Z,40.18
2018-04-29T18:00:41.364Z,40.15
2018-04-29T18:03:09.864Z,40.25
2018-04-29T18:05:38.336Z,40.31
2018-04-29T18:08:06.797Z,40.51
2018-04-29T18:10:35.293Z,40.64
2018-04-29T18:13:03.788Z,40.67
2018-04-29T18:15:32.284Z,40.89
2018-04-29T18:18:00.740Z,40.92
2018-04-29T18:20:29.193Z,40.84
2018-04-29T18:22:57.676Z,40.56
2018-04-29T18:25:26.143Z,40.55
2018-04-29T18:27:54.644Z,40.71
2018-04-29T18:30:23.099Z,40.65
2018-04-29T18:32:51.555Z,40.53
2018-04-29T18:35:20.009Z,40.27
2018-04-29T18:37:48.513Z,40.26
2018-04-29T18:40:16.994Z,40.14
2018-04-29T18:42:45.444Z,40.31
2018-04-29T18:45:13.924Z,39.86
2018-04-29T18:47:42.382Z,40.03
2018-04-29T18:50:10.882Z,40.44
2018-04-29T18:52:39.382Z,40.41
2018-04-29T18:55:07.854Z,40.41
2018-04-29T18:57:36.352Z,39.72
2018-04-29T19:00:04.816Z,39.57
2018-04-29T19:02:33.301Z,39.51
2018-04-29T19:05:01.749Z,39.85
2018-04-29T19:07:30.192Z,39.29
2018-04-29T19:09:58.655Z,38.97
2018-04-29T19:12:27.117Z,38.78
2018-04-29T19:14:55.618Z,37.67
2018-04-29T19:17:24.116Z,38.06
2018-04-29T19:19:52.577Z,38.59
2018-04-29T19:22:21.021Z,40.13
2018-04-29T19:24:49.548Z,40.60
2018-04-29T19:27:18.021Z,39.51
2018-04-29T19:29:46.505Z,38.93
2018-04-29T19:32:14.975Z,38.63
2018-04-29T19:34:43.484Z,38.96
2018-04-29T19:37:11.932Z,39.36
2018-04-29T19:39:40.384Z,39.48
2018-04-29T19:42:08.868Z,39.83
2018-04-29T19:44:37.340Z,40.13
2018-04-29T19:47:05.850Z,40.19
2018-04-29T19:49:34.293Z,39.95
2018-04-29T19:52:02.745Z,39.97
2018-04-29T19:54:31.240Z,40.00
2018-04-29T19:56:59.701Z,39.99
2018-04-29T19:59:28.176Z,40.04
2018-04-29T20:01:56.628Z,40.05
2018-04-29T20:04:25.117Z,39.90
2018-04-29T20:06:53.604Z,39.82
2018-04-29T20:09:22.079Z,39.36
2018-04-29T20:11:50.582Z,39.05
2018-04-29T20:14:19.040Z,39.19
2018-04-29T20:16:47.502Z,39.31
2018-04-29T20:19:15.983Z,39.32
2018-04-29T20:21:44.477Z,39.36
2018-04-29T20:24:12.964Z,39.49
2018-04-29T20:26:41.408Z,39.79
2018-04-29T20:29:10.009Z,39.80
2018-04-29T20:31:38.453Z,39.41
2018-04-29T20:34:06.881Z,39.21
2018-04-29T20:36:35.352Z,39.28
2018-04-29T20:39:03.893Z,39.06
2018-04-29T20:41:32.453Z,38.89
2018-04-29T20:44:00.911Z,38.56
2018-04-29T20:46:29.396Z,38.36
2018-04-29T20:48:57.877Z,38.41
2018-04-29T20:51:26.373Z,38.29
2018-04-29T20:53:54.813Z,38.44
2018-04-29T20:56:23.258Z,38.38
2018-04-29T20:58:51.760Z,38.24
2018-04-29T21:01:20.237Z,38.00
2018-04-29T21:03:48.687Z,37.95
2018-04-29T21:06:17.224Z,37.87
2018-04-29T21:08:45.680Z,37.93
2018-04-29T21:11:14.180Z,37.82
2018-04-29T21:13:42.654Z,37.92
2018-04-29T21:16:11.108Z,37.86
2018-04-29T21:18:39.585Z,38.21
2018-04-29T21:21:08.055Z,38.21
2018-04-29T21:23:36.593Z,38.32
2018-04-29T21:26:05.099Z,38.39
2018-04-29T21:28:33.609Z,38.57
2018-04-29T21:31:02.060Z,38.85
2018-04-29T21:33:30.544Z,39.02
2018-04-29T21:35:58.988Z,39.27
2018-04-29T21:38:27.432Z,39.27
2018-04-29T21:40:55.931Z,39.52
2018-04-29T21:43:24.411Z,39.67
2018-04-29T21:45:52.876Z,39.91
2018-04-29T21:48:21.356Z,39.85
2018-04-29T21:50:49.840Z,39.85
2018-04-29T21:53:18.280Z,39.74
2018-04-29T21:55:46.807Z,39.80
2018-04-29T21:58:15.233Z,40.01
2018-04-29T22:00:43.711Z,40.17
2018-04-29T22:03:12.169Z,40.59
2018-04-29T22:05:40.668Z,40.81
2018-04-29T22:08:09.108Z,40.96
2018-04-29T22:10:37.596Z,41.47
2018-04-29T22:13:06.045Z,41.50
2018-04-29T22:15:34.484Z,41.66
2018-04-29T22:18:02.975Z,41.83
2018-04-29T22:20:31.441Z,41.85
2018-04-29T22:22:59.924Z,41.91
2018-04-29T22:25:28.382Z,42.22
2018-04-29T22:27:56.868Z,42.03
2018-04-29T22:30:25.356Z,42.04
2018-04-29T22:32:53.804Z,42.37
2018-04-29T22:35:22.313Z,42.52
2018-04-29T22:37:50.757Z,42.40
2018-04-29T22:40:19.251Z,42.35
2018-04-29T22:42:47.737Z,42.35
2018-04-29T22:45:16.225Z,42.43
2018-04-29T22:47:44.669Z,42.97
2018-04-29T22:50:13.177Z,42.90
2018-04-29T22:52:41.624Z,43.07
2018-04-29T22:55:10.107Z,43.20
2018-04-29T22:57:38.590Z,42.55
2018-04-29T23:00:07.059Z,42.34
2018-04-29T23:02:35.265Z,42.46
2018-04-29T23:05:03.805Z,42.38
2018-04-29T23:07:32.308Z,42.29
2018-04-29T23:10:00.757Z,42.17
2018-04-29T23:12:29.248Z,42.70
2018-04-29T23:14:57.703Z,42.46
2018-04-29T23:17:26.201Z,43.45
2018-04-29T23:19:54.645Z,43.64
2018-04-29T23:22:23.072Z,43.95
2018-04-29T23:24:51.593Z,43.43
2018-04-29T23:27:20.022Z,43.55
2018-04-29T23:29:48.550Z,43.64
2018-04-29T23:32:17.004Z,43.36
2018-04-29T23:34:45.496Z,43.51
2018-04-29T23:37:13.948Z,43.42
2018-04-29T23:39:42.418Z,43.88
2018-04-29T23:42:10.905Z,43.87
2018-04-29T23:44:39.355Z,44.10
2018-04-29T23:47:07.831Z,43.99
2018-04-29T23:49:36.279Z,43.75
2018-04-29T23:52:04.801Z,44.18
2018-04-29T23:54:33.243Z,44.05
2018-04-29T23:57:01.704Z,44.34
2018-04-29T23:59:30.203Z,44.65
